Time;durP1;ratioP1;P1;durP2;ratioP2;P2;SDS_P1;SDS_P2;PMS_P1;PMS_P2;Temp;Humidity;BMP_temperature;BMP_pressure;BME280_temperature;BME280_humidity;BME280_pressure;Samples;Min_cycle;Max_cycle;Signal;HPM_P1;HPM_P2
2021/10/21 00:00:23;;;;;;;4.32;2.60;;;15.60;99.90;;;;;;5066464;28;20045;-84
2021/10/21 00:02:50;;;;;;;2.60;2.50;;;15.60;99.90;;;;;;5059383;28;20048;-82
2021/10/21 00:05:17;;;;;;;3.88;2.55;;;15.60;99.90;;;;;;5061126;28;20132;-84
2021/10/21 00:07:44;;;;;;;3.00;2.80;;;15.60;99.90;;;;;;5060704;28;20060;-87
2021/10/21 00:10:11;;;;;;;2.45;2.33;;;15.70;99.90;;;;;;5057645;28;20045;-86
2021/10/21 00:12:39;;;;;;;2.58;2.30;;;15.70;99.90;;;;;;5060234;28;20083;-85
2021/10/21 00:15:08;;;;;;;2.40;2.30;;;15.70;99.90;;;;;;5060387;28;20056;-84
2021/10/21 00:17:36;;;;;;;2.40;2.20;;;15.70;99.90;;;;;;5057812;28;20075;-86
2021/10/21 00:20:06;;;;;;;2.80;2.60;;;15.70;99.90;;;;;;5058838;28;20494;-84
2021/10/21 00:22:33;;;;;;;3.15;2.15;;;15.50;99.90;;;;;;5060268;28;20128;-83
2021/10/21 00:25:00;;;;;;;2.20;2.00;;;15.40;99.90;;;;;;5062606;28;20068;-83
2021/10/21 00:27:27;;;;;;;2.60;2.40;;;15.30;99.90;;;;;;5059645;28;20060;-85
2021/10/21 00:29:53;;;;;;;1.75;1.67;;;15.10;99.90;;;;;;5060803;28;20056;-84
2021/10/21 00:32:20;;;;;;;2.17;1.83;;;15.00;99.90;;;;;;5060581;28;20119;-82
2021/10/21 00:34:47;;;;;;;1.70;1.60;;;15.00;99.90;;;;;;5061174;28;20103;-83
2021/10/21 00:37:13;;;;;;;1.58;1.48;;;14.90;99.90;;;;;;5060325;28;20136;-85
2021/10/21 00:39:40;;;;;;;1.52;1.42;;;14.80;99.90;;;;;;5060807;28;20136;-83
2021/10/21 00:42:07;;;;;;;1.40;1.30;;;14.70;99.90;;;;;;5060932;28;20137;-83
2021/10/21 00:44:34;;;;;;;2.13;1.70;;;14.50;99.90;;;;;;5059877;28;20084;-82
2021/10/21 00:47:01;;;;;;;2.40;1.63;;;14.40;99.90;;;;;;5057726;28;20474;-80
2021/10/21 00:49:27;;;;;;;1.58;1.30;;;14.30;99.90;;;;;;5058991;28;20084;-80
2021/10/21 00:51:54;;;;;;;1.58;1.30;;;14.20;99.90;;;;;;5059807;28;20060;-80
2021/10/21 00:54:21;;;;;;;3.55;1.25;;;14.10;99.90;;;;;;5061322;28;20053;-80
2021/10/21 00:56:51;;;;;;;1.92;1.00;;;14.00;99.90;;;;;;5062107;28;20076;-81
2021/10/21 00:59:19;;;;;;;2.20;1.30;;;13.90;99.90;;;;;;5062412;28;20052;-80
2021/10/21 01:01:46;;;;;;;5.80;1.50;;;13.90;99.90;;;;;;5061748;28;20084;-80
2021/10/21 01:04:13;;;;;;;1.10;1.10;;;13.70;99.90;;;;;;5060966;28;20443;-79
2021/10/21 01:06:42;;;;;;;1.67;1.40;;;13.60;99.90;;;;;;5061615;28;20486;-79
2021/10/21 01:09:10;;;;;;;1.90;1.40;;;13.50;99.90;;;;;;5060844;28;20072;-79
2021/10/21 01:11:40;;;;;;;5.65;1.50;;;13.40;99.90;;;;;;5062426;28;20483;-79
2021/10/21 01:14:07;;;;;;;4.10;1.50;;;13.30;99.90;;;;;;5061928;28;20068;-80
2021/10/21 01:16:39;;;;;;;11.02;3.15;;;13.30;99.90;;;;;;5059860;28;20502;-81
2021/10/21 01:19:15;;;;;;;10.02;2.20;;;13.30;99.90;;;;;;5061784;28;20048;-79
2021/10/21 01:21:46;;;;;;;2.88;1.58;;;13.30;99.90;;;;;;5060338;28;20049;-79
2021/10/21 01:24:13;;;;;;;2.55;1.80;;;13.10;99.90;;;;;;5061992;28;20068;-79
2021/10/21 01:26:43;;;;;;;6.70;2.08;;;13.10;99.90;;;;;;5060437;28;20041;-79
2021/10/21 01:29:10;;;;;;;7.25;2.45;;;13.10;99.90;;;;;;5071775;22;20116;-80
2021/10/21 01:31:39;;;;;;;7.40;2.28;;;13.00;99.90;;;;;;5078007;28;20131;-78
2021/10/21 01:34:11;;;;;;;7.90;1.60;;;13.00;99.90;;;;;;5058894;28;20463;-77
2021/10/21 01:36:38;;;;;;;8.60;3.03;;;13.00;99.90;;;;;;5058850;28;20074;-78
2021/10/21 01:39:08;;;;;;;5.70;2.05;;;13.10;99.90;;;;;;5058569;28;20044;-78
2021/10/21 01:41:35;;;;;;;10.75;3.00;;;13.00;99.90;;;;;;5077868;28;20131;-77
2021/10/21 01:44:03;;;;;;;5.13;1.90;;;13.00;99.90;;;;;;5076313;28;20098;-77
2021/10/21 01:46:29;;;;;;;1.95;1.85;;;13.00;99.90;;;;;;5059172;28;20131;-79
2021/10/21 01:48:56;;;;;;;1.70;1.60;;;13.00;99.90;;;;;;5077311;28;20056;-78
2021/10/21 01:51:23;;;;;;;1.75;1.63;;;12.90;99.90;;;;;;5078820;28;20052;-79
2021/10/21 01:53:49;;;;;;;5.70;1.90;;;12.90;99.90;;;;;;5078266;28;20080;-77
2021/10/21 01:56:16;;;;;;;1.65;1.58;;;12.90;99.90;;;;;;5076701;28;20056;-77
2021/10/21 01:58:43;;;;;;;2.63;1.70;;;12.90;99.90;;;;;;5076217;28;20487;-77
2021/10/21 02:01:10;;;;;;;2.95;1.50;;;12.80;99.90;;;;;;5058202;28;20040;-77
2021/10/21 02:03:36;;;;;;;1.80;1.70;;;12.80;99.90;;;;;;5074248;28;20395;-78
2021/10/21 02:06:08;;;;;;;1.90;1.80;;;12.80;99.90;;;;;;5079198;28;20049;-79
2021/10/21 02:08:35;;;;;;;1.95;1.70;;;12.80;99.90;;;;;;5077936;28;20052;-77
2021/10/21 02:11:02;;;;;;;2.20;2.00;;;12.80;99.90;;;;;;5060130;28;20056;-79
2021/10/21 02:13:28;;;;;;;1.60;1.42;;;12.80;99.90;;;;;;5059667;28;20128;-77
2021/10/21 02:15:55;;;;;;;4.82;2.35;;;12.90;99.90;;;;;;5077518;28;20048;-79
2021/10/21 02:18:22;;;;;;;1.10;1.10;;;12.90;99.90;;;;;;5060858;28;20055;-81
2021/10/21 02:20:49;;;;;;;18.85;5.60;;;13.00;99.90;;;;;;5061211;28;20137;-80
2021/10/21 02:23:15;;;;;;;7.75;2.60;;;13.20;99.90;;;;;;5061978;28;20112;-80
2021/10/21 02:25:42;;;;;;;3.17;1.90;;;13.30;99.90;;;;;;5062397;28;20123;-78
2021/10/21 02:28:11;;;;;;;2.53;1.88;;;13.20;99.90;;;;;;5058845;28;20044;-77
2021/10/21 02:30:38;;;;;;;1.80;1.70;;;13.20;99.90;;;;;;5058025;28;20135;-77
2021/10/21 02:33:04;;;;;;;3.03;1.80;;;13.10;99.90;;;;;;5075898;28;20474;-77
2021/10/21 02:35:31;;;;;;;2.72;1.58;;;13.10;99.90;;;;;;5075462;28;20143;-77
2021/10/21 02:37:58;;;;;;;4.60;1.70;;;13.10;99.90;;;;;;5074663;28;20127;-77
2021/10/21 02:40:24;;;;;;;1.65;1.55;;;13.10;99.90;;;;;;5058274;28;20076;-79
2021/10/21 02:42:51;;;;;;;2.58;1.80;;;13.10;99.90;;;;;;5059055;28;20084;-77
2021/10/21 02:45:18;;;;;;;3.38;1.85;;;13.10;99.90;;;;;;5077562;28;20159;-77
2021/10/21 02:47:45;;;;;;;2.53;1.85;;;13.00;99.90;;;;;;5058416;28;20589;-77
2021/10/21 02:50:11;;;;;;;1.65;1.50;;;13.00;99.90;;;;;;5076498;28;20464;-78
2021/10/21 02:52:38;;;;;;;2.00;1.90;;;13.00;99.90;;;;;;5060244;28;20047;-78
2021/10/21 02:55:06;;;;;;;2.92;2.00;;;13.00;99.90;;;;;;5060342;28;20475;-78
2021/10/21 02:57:32;;;;;;;1.90;1.80;;;13.00;99.90;;;;;;5059724;28;20083;-77
2021/10/21 02:59:59;;;;;;;1.75;1.65;;;13.00;99.90;;;;;;5077163;28;20489;-77
2021/10/21 03:02:26;;;;;;;5.28;1.50;;;13.00;99.90;;;;;;5060460;28;20131;-79
2021/10/21 03:04:53;;;;;;;1.77;1.60;;;13.00;99.90;;;;;;5060008;28;20049;-77
2021/10/21 03:07:20;;;;;;;1.80;1.70;;;13.00;99.90;;;;;;5075688;28;20537;-79
2021/10/21 03:09:46;;;;;;;1.75;1.65;;;12.90;99.90;;;;;;5076091;28;20049;-78
2021/10/21 03:12:13;;;;;;;2.13;1.98;;;12.90;99.90;;;;;;5076266;28;20049;-80
2021/10/21 03:14:39;;;;;;;1.73;1.63;;;13.00;99.90;;;;;;5075972;28;20076;-78
2021/10/21 03:17:07;;;;;;;2.03;1.30;;;13.00;99.90;;;;;;5077037;28;20139;-79
2021/10/21 03:19:34;;;;;;;1.65;1.55;;;13.10;99.90;;;;;;5057989;28;20056;-78
2021/10/21 03:22:01;;;;;;;1.42;1.42;;;13.20;99.90;;;;;;5060129;28;20080;-78
2021/10/21 03:24:27;;;;;;;1.70;1.60;;;13.20;99.90;;;;;;5058768;28;20079;-79
2021/10/21 03:26:54;;;;;;;1.88;1.50;;;13.20;99.90;;;;;;5076404;28;20475;-79
2021/10/21 03:29:21;;;;;;;1.38;1.27;;;13.30;99.90;;;;;;5059345;28;20116;-78
2021/10/21 03:31:48;;;;;;;2.78;1.85;;;13.30;99.90;;;;;;5078712;28;20106;-79
2021/10/21 03:34:15;;;;;;;3.00;1.50;;;13.30;99.90;;;;;;5076342;28;20052;-80
2021/10/21 03:36:42;;;;;;;1.40;1.33;;;13.40;99.90;;;;;;5058628;28;20131;-80
2021/10/21 03:39:09;;;;;;;1.60;1.50;;;13.40;99.90;;;;;;5058178;28;20075;-78
2021/10/21 03:41:36;;;;;;;1.70;1.58;;;13.40;99.90;;;;;;5057421;28;20072;-77
2021/10/21 03:44:03;;;;;;;1.88;1.65;;;13.40;99.90;;;;;;5075615;28;20147;-78
2021/10/21 03:46:30;;;;;;;1.50;1.42;;;13.40;99.90;;;;;;5057288;28;20060;-78
2021/10/21 03:48:56;;;;;;;1.90;1.60;;;13.40;99.90;;;;;;5057994;28;20102;-79
2021/10/21 03:51:23;;;;;;;3.42;1.70;;;13.40;99.90;;;;;;5074836;28;20135;-78
2021/10/21 03:53:50;;;;;;;1.80;1.70;;;13.40;99.90;;;;;;5075624;28;20143;-79
2021/10/21 03:56:17;;;;;;;2.97;1.90;;;13.40;99.90;;;;;;5057505;28;20140;-79
2021/10/21 03:58:43;;;;;;;1.60;1.50;;;13.40;99.90;;;;;;5075339;28;20390;-79
2021/10/21 04:01:10;;;;;;;2.13;1.92;;;13.40;99.90;;;;;;5058633;28;20124;-78
2021/10/21 04:03:37;;;;;;;2.05;1.70;;;13.40;99.90;;;;;;5075135;28;20057;-78
2021/10/21 04:06:03;;;;;;;2.03;1.92;;;13.40;99.90;;;;;;5057343;28;20143;-78
2021/10/21 04:08:30;;;;;;;1.85;1.60;;;13.50;99.90;;;;;;5074598;28;20046;-77
2021/10/21 04:10:58;;;;;;;1.60;1.50;;;13.50;99.90;;;;;;5074764;28;20070;-80
2021/10/21 04:13:24;;;;;;;4.68;1.88;;;13.50;99.90;;;;;;5075740;28;20091;-78
2021/10/21 04:15:51;;;;;;;2.15;1.95;;;13.50;99.90;;;;;;5074671;28;20072;-77
2021/10/21 04:18:18;;;;;;;1.90;1.73;;;13.50;99.90;;;;;;5055653;28;20412;-77
2021/10/21 04:20:46;;;;;;;1.63;1.40;;;13.50;99.90;;;;;;5073144;28;20139;-77
2021/10/21 04:23:12;;;;;;;2.75;1.63;;;13.40;99.90;;;;;;5074106;28;20049;-77
2021/10/21 04:25:39;;;;;;;2.45;1.42;;;13.40;99.90;;;;;;5056214;28;20044;-78
2021/10/21 04:28:06;;;;;;;1.42;1.33;;;13.40;99.90;;;;;;5077520;28;20512;-78
2021/10/21 04:30:32;;;;;;;3.45;1.17;;;13.40;99.90;;;;;;5059143;28;20135;-77
2021/10/21 04:32:59;;;;;;;2.47;1.02;;;13.40;99.90;;;;;;5059934;28;20106;-81
2021/10/21 04:35:26;;;;;;;10.85;1.27;;;13.50;99.90;;;;;;5061161;28;20102;-81
2021/10/21 04:37:53;;;;;;;1.20;1.00;;;13.60;99.90;;;;;;5060359;28;20052;-79
2021/10/21 04:40:20;;;;;;;1.20;1.20;;;13.60;99.90;;;;;;5060215;28;20049;-77
2021/10/21 04:42:46;;;;;;;3.33;1.40;;;13.60;99.90;;;;;;5077405;28;20520;-77
2021/10/21 04:45:13;;;;;;;1.50;1.40;;;13.60;99.90;;;;;;5078234;28;20048;-79
2021/10/21 04:47:40;;;;;;;1.77;1.20;;;13.70;99.90;;;;;;5060258;28;20037;-76
2021/10/21 04:50:07;;;;;;;1.80;1.45;;;13.80;99.90;;;;;;5076908;28;20581;-79
2021/10/21 04:52:35;;;;;;;3.60;1.25;;;13.80;99.90;;;;;;5078119;28;20102;-77
2021/10/21 04:55:02;;;;;;;2.60;1.55;;;13.80;99.90;;;;;;5061888;28;20072;-78
2021/10/21 04:57:28;;;;;;;1.38;1.30;;;13.90;99.90;;;;;;5078486;28;20110;-79
2021/10/21 04:59:55;;;;;;;1.27;1.27;;;13.80;99.90;;;;;;5060127;28;20128;-78
2021/10/21 05:02:22;;;;;;;3.17;1.58;;;13.80;99.90;;;;;;5079180;28;20045;-79
2021/10/21 05:04:49;;;;;;;2.42;1.40;;;13.70;99.90;;;;;;5061802;28;20044;-79
2021/10/21 05:07:16;;;;;;;2.38;1.15;;;13.70;99.90;;;;;;5061731;28;20080;-82
2021/10/21 05:09:42;;;;;;;1.27;1.13;;;13.70;99.90;;;;;;5080430;28;20174;-80
2021/10/21 05:12:09;;;;;;;2.03;1.45;;;13.70;99.90;;;;;;5061913;28;20107;-80
2021/10/21 05:14:36;;;;;;;2.72;1.10;;;13.80;99.90;;;;;;5061239;28;20048;-78
2021/10/21 05:17:03;;;;;;;2.20;0.98;;;13.70;99.90;;;;;;5061261;28;20591;-79
2021/10/21 05:19:29;;;;;;;1.08;1.08;;;13.70;99.90;;;;;;5061813;28;20045;-79
2021/10/21 05:21:56;;;;;;;2.42;1.30;;;13.70;99.90;;;;;;5082926;28;20055;-78
2021/10/21 05:30:56;;;;;;;1.17;1.08;;;13.70;99.90;;;;;;5990315;22;20090;-95
2021/10/21 05:33:26;;;;;;;1.27;1.17;;;13.70;99.90;;;;;;5107208;28;20108;-95
2021/10/21 05:35:52;;;;;;;0.90;0.90;;;13.70;99.90;;;;;;5091165;28;20413;-94
2021/10/21 05:38:19;;;;;;;2.38;1.60;;;13.70;99.90;;;;;;5074563;28;20122;-92
2021/10/21 05:40:46;;;;;;;1.15;0.80;;;13.60;99.90;;;;;;5084820;28;20055;-92
2021/10/21 05:43:13;;;;;;;2.80;1.20;;;13.50;99.90;;;;;;5103054;28;20058;-94
2021/10/21 05:45:40;;;;;;;2.63;0.60;;;13.50;99.90;;;;;;5083022;28;20572;-93
2021/10/21 05:48:07;;;;;;;2.33;0.65;;;13.40;99.90;;;;;;5083899;28;20082;-95
2021/10/21 05:50:33;;;;;;;0.60;0.50;;;13.20;99.90;;;;;;5085890;28;20119;-92
2021/10/21 05:53:03;;;;;;;3.42;0.73;;;13.10;99.90;;;;;;5083171;28;20063;-92
2021/10/21 05:55:32;;;;;;;2.05;0.43;;;12.80;99.90;;;;;;5081906;28;20074;-94
2021/10/21 05:57:59;;;;;;;2.50;0.95;;;12.50;99.90;;;;;;5081944;28;20488;-92
2021/10/21 06:00:48;;;;;;;1.52;0.60;;;12.20;99.90;;;;;;5083081;28;20488;-96
2021/10/21 06:03:25;;;;;;;2.95;0.80;;;12.00;99.90;;;;;;5090493;28;20071;-96
2021/10/21 06:05:53;;;;;;;1.92;0.50;;;11.90;99.90;;;;;;5085072;28;20055;-94
2021/10/21 06:08:26;;;;;;;2.33;0.47;;;11.80;99.90;;;;;;5085944;28;20070;-95
2021/10/21 06:11:08;;;;;;;3.60;1.08;;;11.80;99.90;;;;;;5089225;28;20056;-96
2021/10/21 06:13:38;;;;;;;10.10;0.70;;;11.70;99.90;;;;;;5084818;28;20107;-96
2021/10/21 06:16:07;;;;;;;1.10;0.50;;;11.70;99.90;;;;;;5084294;28;20451;-94
2021/10/21 06:18:38;;;;;;;3.10;0.60;;;11.80;99.90;;;;;;5099529;28;20105;-94
2021/10/21 06:21:10;;;;;;;5.13;0.95;;;11.90;99.90;;;;;;5100233;28;20445;-96
2021/10/21 06:23:40;;;;;;;2.78;0.95;;;11.90;99.90;;;;;;5100309;28;20055;-94
2021/10/21 06:26:07;;;;;;;3.53;1.10;;;11.90;99.90;;;;;;5080431;28;20084;-94
2021/10/21 06:28:34;;;;;;;3.80;0.70;;;11.90;99.90;;;;;;5081224;28;20089;-92
2021/10/21 06:31:03;;;;;;;3.83;0.82;;;11.90;99.90;;;;;;5080003;28;20454;-96
2021/10/21 06:33:29;;;;;;;3.22;0.47;;;11.90;99.90;;;;;;5077551;28;20390;-89
2021/10/21 06:35:57;;;;;;;5.65;0.82;;;12.00;99.90;;;;;;5077485;28;20071;-91
2021/10/21 06:38:23;;;;;;;3.22;0.68;;;12.00;99.90;;;;;;5077219;28;20132;-95
2021/10/21 06:40:50;;;;;;;3.55;0.63;;;12.10;99.90;;;;;;5078307;28;20121;-92
2021/10/21 06:43:20;;;;;;;5.82;0.90;;;12.10;99.90;;;;;;5080257;28;20064;-94
2021/10/21 06:45:46;;;;;;;6.82;1.10;;;12.10;99.90;;;;;;5077922;28;20059;-92
2021/10/21 06:48:13;;;;;;;3.95;0.90;;;12.20;99.90;;;;;;5074993;28;20044;-96
2021/10/21 06:50:40;;;;;;;8.85;1.45;;;12.20;99.90;;;;;;5074238;28;20067;-93
2021/10/21 06:53:06;;;;;;;4.03;1.60;;;12.20;99.90;;;;;;5076736;28;20162;-93
2021/10/21 06:55:34;;;;;;;3.85;1.17;;;12.10;99.90;;;;;;5078666;28;20048;-96
2021/10/21 06:58:01;;;;;;;2.83;0.60;;;12.10;99.90;;;;;;5077598;28;20124;-92
2021/10/21 07:00:29;;;;;;;6.30;0.73;;;12.00;99.90;;;;;;5076745;28;20439;-93
2021/10/21 07:03:09;;;;;;;4.88;1.05;;;11.90;99.90;;;;;;5079288;28;20078;-96
2021/10/21 07:05:40;;;;;;;2.88;0.95;;;11.70;99.90;;;;;;5076252;28;20071;-95
2021/10/21 07:08:08;;;;;;;8.90;1.10;;;11.60;99.90;;;;;;5077574;28;20127;-94
2021/10/21 07:10:38;;;;;;;5.35;0.90;;;11.50;99.90;;;;;;5074778;28;20059;-90
2021/10/21 07:13:06;;;;;;;9.48;1.45;;;11.50;99.90;;;;;;5078407;28;20094;-93
2021/10/21 07:15:51;;;;;;;4.85;1.50;;;11.40;99.90;;;;;;5076061;28;20095;-90
2021/10/21 07:18:18;;;;;;;4.95;0.88;;;11.30;99.90;;;;;;5075239;28;20052;-89
2021/10/21 07:20:45;;;;;;;3.35;0.80;;;11.30;99.90;;;;;;5077003;28;20404;-92
2021/10/21 07:23:12;;;;;;;5.68;0.98;;;11.30;99.90;;;;;;5076260;28;20052;-91
2021/10/21 07:25:39;;;;;;;6.32;1.10;;;11.30;99.90;;;;;;5077166;28;20048;-93
2021/10/21 07:28:09;;;;;;;9.63;1.25;;;11.30;99.90;;;;;;5077986;28;20083;-93
2021/10/21 07:30:38;;;;;;;6.78;1.42;;;11.30;99.90;;;;;;5083110;28;20045;-95
2021/10/21 07:33:05;;;;;;;9.20;1.10;;;11.20;99.90;;;;;;5082100;28;20043;-90
2021/10/21 07:35:32;;;;;;;7.68;1.45;;;11.20;99.90;;;;;;5096178;28;20083;-88
2021/10/21 07:38:00;;;;;;;8.05;1.40;;;11.10;99.90;;;;;;5078586;28;20135;-92
2021/10/21 07:40:28;;;;;;;8.77;1.05;;;11.10;99.90;;;;;;5078167;28;20054;-89
2021/10/21 07:42:55;;;;;;;7.70;1.10;;;11.00;99.90;;;;;;5078336;28;20547;-93
2021/10/21 07:45:22;;;;;;;9.40;1.40;;;11.00;99.90;;;;;;5080328;28;20142;-96
2021/10/21 07:47:50;;;;;;;7.82;1.33;;;10.90;99.90;;;;;;5087698;28;20119;-96
2021/10/21 07:50:18;;;;;;;5.18;1.33;;;10.90;99.90;;;;;;5081424;28;20044;-95
2021/10/21 07:52:46;;;;;;;6.88;1.20;;;10.80;99.90;;;;;;5079267;28;20059;-90
2021/10/21 07:55:14;;;;;;;5.28;0.90;;;10.80;99.90;;;;;;5078272;28;20044;-88
2021/10/21 07:57:41;;;;;;;9.02;1.25;;;10.80;99.90;;;;;;5082254;28;20051;-86
2021/10/21 08:00:11;;;;;;;7.03;0.80;;;10.80;99.90;;;;;;5080101;28;20131;-92
2021/10/21 08:02:39;;;;;;;7.93;0.90;;;10.90;99.90;;;;;;5082708;28;20071;-92
2021/10/21 08:05:06;;;;;;;6.25;1.02;;;10.90;99.90;;;;;;5086849;28;20047;-91
2021/10/21 08:07:41;;;;;;;10.02;1.55;;;10.90;99.90;;;;;;5084238;28;20533;-96
2021/10/21 08:10:09;;;;;;;3.22;1.02;;;10.90;99.90;;;;;;5083729;28;20068;-95
2021/10/21 08:12:37;;;;;;;5.03;0.85;;;10.90;99.90;;;;;;5086485;28;20116;-93
2021/10/21 08:15:19;;;;;;;4.95;1.20;;;10.80;99.90;;;;;;5084491;28;20055;-91
2021/10/21 08:17:46;;;;;;;7.57;1.05;;;10.90;99.90;;;;;;5081784;28;20600;-86
2021/10/21 08:20:13;;;;;;;4.95;1.30;;;10.90;99.90;;;;;;5098434;28;20048;-91
2021/10/21 08:22:45;;;;;;;3.45;0.70;;;10.90;99.90;;;;;;5081356;28;20135;-91
2021/10/21 08:25:13;;;;;;;4.22;0.82;;;10.90;99.90;;;;;;5081220;28;20117;-91
2021/10/21 08:27:42;;;;;;;8.98;0.80;;;11.00;99.90;;;;;;5081349;28;20135;-94
2021/10/21 08:30:10;;;;;;;7.43;0.90;;;11.00;99.90;;;;;;5080458;28;20054;-93
2021/10/21 08:32:37;;;;;;;9.18;0.88;;;11.00;99.90;;;;;;5081444;28;20095;-92
2021/10/21 08:35:05;;;;;;;4.93;0.57;;;11.00;99.90;;;;;;5079776;28;20127;-90
2021/10/21 08:37:32;;;;;;;3.60;0.80;;;11.00;99.90;;;;;;5080112;28;20623;-94
2021/10/21 08:40:00;;;;;;;3.60;0.90;;;11.00;99.90;;;;;;5080493;28;20047;-88
2021/10/21 08:42:26;;;;;;;3.72;0.47;;;11.00;99.90;;;;;;5079753;28;20054;-88
2021/10/21 08:44:53;;;;;;;3.05;0.30;;;11.00;99.90;;;;;;5080188;28;20048;-91
2021/10/21 08:47:21;;;;;;;3.38;0.45;;;11.00;99.90;;;;;;5080379;28;20115;-90
2021/10/21 08:49:49;;;;;;;2.40;0.90;;;11.00;99.90;;;;;;5081851;28;20044;-92
2021/10/21 08:52:16;;;;;;;5.45;0.50;;;11.00;99.90;;;;;;5079714;28;20098;-91
2021/10/21 08:54:48;;;;;;;2.00;0.50;;;11.10;99.90;;;;;;5098046;28;20070;-93
2021/10/21 08:57:15;;;;;;;1.50;0.60;;;11.10;99.90;;;;;;5081736;28;20062;-92
2021/10/21 08:59:44;;;;;;;2.08;0.60;;;11.20;99.90;;;;;;5080591;28;20074;-92
2021/10/21 09:02:21;;;;;;;4.13;0.55;;;11.20;99.90;;;;;;5080874;28;20056;-94
2021/10/21 09:05:10;;;;;;;2.78;0.45;;;11.20;99.90;;;;;;5064890;28;20044;-87
2021/10/21 09:07:57;;;;;;;2.40;0.22;;;11.30;99.90;;;;;;5080122;28;20134;-90
2021/10/21 09:10:25;;;;;;;4.93;0.60;;;11.30;99.90;;;;;;5080678;28;20109;-92
2021/10/21 09:12:53;;;;;;;0.95;0.50;;;11.30;99.90;;;;;;5079357;28;20040;-93
2021/10/21 09:15:23;;;;;;;6.72;0.45;;;11.20;99.90;;;;;;5080173;28;20044;-90
2021/10/21 09:17:51;;;;;;;1.15;0.20;;;11.30;99.90;;;;;;5081124;28;20050;-90
2021/10/21 09:20:26;;;;;;;0.93;0.17;;;11.30;99.90;;;;;;5079422;28;20048;-89
2021/10/21 09:23:01;;;;;;;2.83;0.77;;;11.70;99.90;;;;;;5079755;28;20127;-94
2021/10/21 09:25:32;;;;;;;0.90;0.22;;;12.10;99.90;;;;;;5080770;28;20105;-92
2021/10/21 09:28:01;;;;;;;0.75;0.10;;;12.10;99.90;;;;;;5078940;28;20540;-90
2021/10/21 09:30:30;;;;;;;2.33;0.30;;;12.10;99.90;;;;;;5078987;28;20055;-91
2021/10/21 09:33:12;;;;;;;4.28;0.30;;;12.40;99.90;;;;;;5080942;28;20131;-95
2021/10/21 09:35:50;;;;;;;0.63;0.28;;;12.70;99.90;;;;;;5080236;28;20074;-92
2021/10/21 09:38:18;;;;;;;3.33;0.13;;;12.50;99.90;;;;;;5079594;28;20135;-95
2021/10/21 09:40:44;;;;;;;1.77;0.13;;;12.40;99.90;;;;;;5080725;28;20056;-87
2021/10/21 09:43:15;;;;;;;0.30;0.10;;;12.20;99.90;;;;;;5080059;28;20126;-93
2021/10/21 09:45:43;;;;;;;0.28;0.22;;;12.30;99.90;;;;;;5079316;28;20048;-95
2021/10/21 09:48:17;;;;;;;0.40;0.10;;;12.80;99.90;;;;;;5079765;28;20382;-93
2021/10/21 09:50:47;;;;;;;5.53;0.20;;;13.00;99.90;;;;;;5062148;28;20121;-95
2021/10/21 09:53:32;;;;;;;0.90;0.20;;;12.90;99.90;;;;;;5078839;28;20051;-90
2021/10/21 09:56:06;;;;;;;1.85;0.28;;;13.10;99.90;;;;;;5097780;28;20124;-95
2021/10/21 09:58:35;;;;;;;;;;;13.40;99.90;;;;;;5082089;28;20090;-93
2021/10/21 10:01:09;;;;;;;3.17;0.30;;;13.50;99.90;;;;;;5097544;28;19927;-93
2021/10/21 10:03:42;;;;;;;0.50;0.30;;;13.40;99.90;;;;;;5096714;28;20052;-95
2021/10/21 10:06:14;;;;;;;0.85;0.20;;;13.40;99.90;;;;;;5079357;28;20048;-92
2021/10/21 10:08:41;;;;;;;1.75;0.17;;;13.30;99.90;;;;;;5096106;28;20051;-92
2021/10/21 10:11:11;;;;;;;0.45;0.20;;;13.10;99.90;;;;;;5079732;28;20135;-93
2021/10/21 10:13:47;;;;;;;2.50;0.22;;;13.00;99.90;;;;;;5078590;28;20055;-94
2021/10/21 10:16:14;;;;;;;3.10;0.40;;;12.80;99.90;;;;;;5080410;28;20112;-92
2021/10/21 10:18:43;;;;;;;1.35;0.15;;;13.10;99.90;;;;;;5079990;28;20058;-88
2021/10/21 10:21:25;;;;;;;0.35;0.20;;;13.10;99.90;;;;;;5080232;28;20131;-92
2021/10/21 10:24:06;;;;;;;1.75;0.40;;;13.20;99.90;;;;;;5080363;28;20129;-96
2021/10/21 10:26:50;;;;;;;1.75;0.17;;;13.20;99.90;;;;;;5062431;28;20052;-93
2021/10/21 10:29:39;;;;;;;2.53;0.20;;;13.00;99.90;;;;;;5078489;28;20076;-93
2021/10/21 10:32:26;;;;;;;0.35;0.10;;;12.90;99.90;;;;;;5084702;28;20143;-91
2021/10/21 10:34:54;;;;;;;1.40;0.10;;;12.80;99.90;;;;;;5097286;28;20123;-93
2021/10/21 10:37:21;;;;;;;0.38;0.17;;;12.60;99.90;;;;;;5079591;28;20052;-96
2021/10/21 10:39:53;;;;;;;1.20;0.52;;;12.40;99.90;;;;;;5082180;28;20135;-96
2021/10/21 10:42:29;;;;;;;1.73;0.20;;;12.40;99.90;;;;;;5079209;28;20075;-95
2021/10/21 10:44:59;;;;;;;0.20;0.10;;;12.20;99.90;;;;;;5077300;28;20051;-91
2021/10/21 10:47:52;;;;;;;0.82;0.10;;;12.10;99.90;;;;;;5077096;28;20051;-94
2021/10/21 10:50:22;;;;;;;2.53;0.10;;;12.40;99.90;;;;;;5077895;28;20135;-94
2021/10/21 10:52:55;;;;;;;1.85;0.10;;;13.60;99.90;;;;;;5094762;28;20131;-90
2021/10/21 10:55:25;;;;;;;1.70;0.00;;;15.30;99.90;;;;;;5077501;28;20054;-92
2021/10/21 10:58:02;;;;;;;1.70;0.20;;;15.60;99.90;;;;;;5078058;28;20083;-87
2021/10/21 11:00:51;;;;;;;1.90;0.20;;;15.90;99.90;;;;;;5077436;28;20052;-88
2021/10/21 11:03:33;;;;;;;0.70;0.30;;;15.70;99.90;;;;;;5077612;28;20056;-91
2021/10/21 11:06:04;;;;;;;1.35;0.38;;;15.50;99.90;;;;;;5078673;28;20048;-94
2021/10/21 11:09:08;;;;;;;0.98;0.30;;;15.50;99.90;;;;;;5078130;28;20055;-94
2021/10/21 11:11:38;;;;;;;3.15;0.50;;;15.40;99.90;;;;;;5078111;28;20044;-90
2021/10/21 11:14:07;;;;;;;3.20;0.57;;;14.90;99.90;;;;;;5080206;28;20431;-96
2021/10/21 11:16:53;;;;;;;4.55;0.32;;;14.70;99.90;;;;;;5096308;28;20131;-95
2021/10/21 11:19:41;;;;;;;0.68;0.20;;;14.90;99.90;;;;;;5095662;28;20105;-94
2021/10/21 11:22:19;;;;;;;0.82;0.40;;;15.20;99.90;;;;;;5078730;28;20051;-90
2021/10/21 11:24:49;;;;;;;0.77;0.30;;;15.60;99.90;;;;;;5077098;28;20473;-93
2021/10/21 11:27:26;;;;;;;2.15;0.57;;;15.20;99.90;;;;;;5077212;28;20048;-92
2021/10/21 11:29:53;;;;;;;3.67;0.55;;;15.00;99.90;;;;;;5095334;28;20054;-92
2021/10/21 11:32:21;;;;;;;1.23;0.40;;;15.40;99.90;;;;;;5073726;28;20056;-92
2021/10/21 11:34:48;;;;;;;2.13;0.43;;;16.30;99.90;;;;;;5073132;28;20040;-87
2021/10/21 11:37:43;;;;;;;0.98;0.50;;;17.00;99.50;;;;;;5073075;28;20057;-92
2021/10/21 11:40:22;;;;;;;1.60;0.40;;;17.10;98.40;;;;;;5074960;28;20200;-90
2021/10/21 11:42:54;;;;;;;1.48;0.68;;;16.80;98.90;;;;;;5074112;28;20051;-90
2021/10/21 11:45:27;;;;;;;1.25;0.45;;;17.00;95.20;;;;;;5073897;28;20045;-92
2021/10/21 11:47:55;;;;;;;1.83;0.43;;;17.30;94.40;;;;;;5075458;28;20053;-90
2021/10/21 11:50:40;;;;;;;2.17;0.57;;;16.90;95.10;;;;;;5074529;28;20052;-94
2021/10/21 11:53:11;;;;;;;0.98;0.30;;;16.10;95.60;;;;;;5077459;28;20052;-91
2021/10/21 11:55:40;;;;;;;3.65;0.70;;;15.90;97.10;;;;;;5075215;28;20041;-93
2021/10/21 11:58:09;;;;;;;3.13;0.40;;;15.60;97.20;;;;;;5076726;28;20128;-91
2021/10/21 12:00:37;;;;;;;2.63;0.80;;;15.50;99.90;;;;;;5073323;28;20044;-92
2021/10/21 12:03:04;;;;;;;3.20;0.80;;;15.40;97.30;;;;;;5074722;28;20052;-93
2021/10/21 12:05:34;;;;;;;3.95;0.50;;;15.30;98.30;;;;;;5074227;28;20051;-87
2021/10/21 12:08:03;;;;;;;1.67;1.02;;;15.00;99.20;;;;;;5077532;28;20052;-96
2021/10/21 12:10:31;;;;;;;0.70;0.30;;;14.80;99.90;;;;;;5074933;28;20073;-91
2021/10/21 12:13:05;;;;;;;1.50;0.95;;;14.80;99.90;;;;;;5076276;28;20063;-91
2021/10/21 12:15:36;;;;;;;2.13;0.45;;;14.50;99.90;;;;;;5074994;28;20049;-92
2021/10/21 12:18:10;;;;;;;3.67;0.43;;;14.10;99.90;;;;;;5075503;28;20144;-94
2021/10/21 12:20:51;;;;;;;1.85;0.30;;;14.00;99.90;;;;;;5079833;28;20080;-96
2021/10/21 12:23:28;;;;;;;1.75;0.57;;;14.10;99.90;;;;;;5075643;28;20052;-95
2021/10/21 12:26:07;;;;;;;3.13;0.65;;;14.20;99.90;;;;;;5077750;28;20041;-96
2021/10/21 12:28:47;;;;;;;3.72;0.35;;;14.20;99.90;;;;;;5077973;28;20051;-91
2021/10/21 12:31:34;;;;;;;3.80;0.45;;;14.10;99.90;;;;;;5076291;28;20059;-91
2021/10/21 12:34:04;;;;;;;1.10;0.50;;;13.90;99.90;;;;;;5075921;28;20065;-96
2021/10/21 12:36:33;;;;;;;3.42;0.50;;;13.70;99.90;;;;;;5077048;28;20139;-94
2021/10/21 12:39:09;;;;;;;3.22;0.50;;;13.50;99.90;;;;;;5075553;28;20045;-96
2021/10/21 12:41:55;;;;;;;6.75;0.85;;;13.40;99.90;;;;;;5062010;28;20439;-95
2021/10/21 12:44:32;;;;;;;2.28;0.70;;;13.30;99.90;;;;;;5074207;28;20139;-90
2021/10/21 12:47:13;;;;;;;1.95;0.65;;;13.10;99.90;;;;;;5073156;28;20075;-91
2021/10/21 12:49:57;;;;;;;3.60;0.40;;;12.90;99.90;;;;;;5082564;28;20560;-94
2021/10/21 12:52:27;;;;;;;4.60;0.75;;;12.70;99.90;;;;;;5082047;28;20059;-91
2021/10/21 12:55:16;;;;;;;1.77;0.82;;;12.50;99.90;;;;;;5082010;28;20226;-95
2021/10/21 12:57:52;;;;;;;3.22;0.30;;;12.50;99.90;;;;;;5079330;28;20064;-93
2021/10/21 13:00:35;;;;;;;2.47;0.50;;;12.50;99.90;;;;;;5081578;28;20045;-90
2021/10/21 13:03:04;;;;;;;3.97;0.50;;;12.60;99.90;;;;;;5076460;28;20049;-92
2021/10/21 13:05:32;;;;;;;2.55;0.60;;;12.50;99.90;;;;;;5078342;28;20127;-96
2021/10/21 13:07:59;;;;;;;5.22;0.88;;;12.40;99.90;;;;;;5078632;28;20563;-94